sensor_id;sensor_type;location;lat;lon;timestamp;P1;durP1;ratioP1;P2;durP2;ratioP2
24044;SDS011;26257;49.442;8.422;2023-05-07T20:54:42;55.90;;;33.50;;
24044;SDS011;26257;49.442;8.422;2023-05-07T20:57:10;61.80;;;36.47;;
24044;SDS011;26257;49.442;8.422;2023-05-07T21:01:22;70.15;;;28.40;;
24044;SDS011;26257;49.442;8.422;2023-05-07T21:03:47;66.07;;;40.75;;
24044;SDS011;26257;49.442;8.422;2023-05-07T21:06:14;108.47;;;47.30;;
24044;SDS011;26257;49.442;8.422;2023-05-07T21:08:39;281.17;;;70.20;;
24044;SDS011;26257;49.442;8.422;2023-05-07T21:11:05;73.63;;;43.35;;
24044;SDS011;26257;49.442;8.422;2023-05-07T21:13:30;68.05;;;40.33;;
24044;SDS011;26257;49.442;8.422;2023-05-07T21:15:56;53.33;;;35.20;;
24044;SDS011;26257;49.442;8.422;2023-05-07T21:18:21;51.15;;;33.00;;
24044;SDS011;26257;49.442;8.422;2023-05-07T21:20:47;46.20;;;29.98;;
24044;SDS011;26257;49.442;8.422;2023-05-07T21:23:12;47.58;;;29.45;;
24044;SDS011;26257;49.442;8.422;2023-05-07T21:25:38;41.78;;;27.42;;
24044;SDS011;26257;49.442;8.422;2023-05-07T21:28:08;43.17;;;28.33;;
24044;SDS011;26257;49.442;8.422;2023-05-07T21:30:33;38.33;;;26.55;;
24044;SDS011;26257;49.442;8.422;2023-05-07T21:32:59;39.50;;;26.45;;
24044;SDS011;26257;49.442;8.422;2023-05-07T21:35:25;38.95;;;26.23;;
24044;SDS011;26257;49.442;8.422;2023-05-07T21:37:51;37.38;;;24.92;;
24044;SDS011;26257;49.442;8.422;2023-05-07T21:40:16;37.00;;;24.05;;
24044;SDS011;26257;49.442;8.422;2023-05-07T21:42:42;33.83;;;23.38;;
24044;SDS011;26257;49.442;8.422;2023-05-07T21:45:07;33.80;;;23.55;;
24044;SDS011;26257;49.442;8.422;2023-05-07T21:47:33;32.17;;;21.10;;
24044;SDS011;26257;49.442;8.422;2023-05-07T21:49:59;35.75;;;24.85;;
24044;SDS011;26257;49.442;8.422;2023-05-07T21:52:25;43.35;;;26.08;;
24044;SDS011;26257;49.442;8.422;2023-05-07T21:54:51;45.03;;;27.95;;
24044;SDS011;26257;49.442;8.422;2023-05-07T21:57:17;43.13;;;26.02;;
24044;SDS011;26257;49.442;8.422;2023-05-07T21:59:42;57.45;;;34.60;;
24044;SDS011;26257;49.442;8.422;2023-05-07T22:02:08;38.58;;;24.13;;
24044;SDS011;26257;49.442;8.422;2023-05-07T22:04:33;38.00;;;24.13;;
24044;SDS011;26257;49.442;8.422;2023-05-07T22:06:59;40.42;;;25.25;;
24044;SDS011;26257;49.442;8.422;2023-05-07T22:09:24;41.45;;;26.55;;
24044;SDS011;26257;49.442;8.422;2023-05-07T22:11:49;39.47;;;26.83;;
24044;SDS011;26257;49.442;8.422;2023-05-07T22:14:15;44.92;;;28.52;;
24044;SDS011;26257;49.442;8.422;2023-05-07T22:16:40;44.20;;;28.38;;
24044;SDS011;26257;49.442;8.422;2023-05-07T22:19:06;40.70;;;26.08;;
24044;SDS011;26257;49.442;8.422;2023-05-07T22:21:31;44.65;;;27.45;;
24044;SDS011;26257;49.442;8.422;2023-05-07T22:23:57;38.72;;;25.58;;
24044;SDS011;26257;49.442;8.422;2023-05-07T22:26:22;36.35;;;24.08;;
24044;SDS011;26257;49.442;8.422;2023-05-07T22:28:49;40.08;;;24.67;;
24044;SDS011;26257;49.442;8.422;2023-05-07T22:31:15;30.88;;;20.85;;
24044;SDS011;26257;49.442;8.422;2023-05-07T22:33:40;28.98;;;20.40;;
24044;SDS011;26257;49.442;8.422;2023-05-07T22:36:06;30.10;;;19.65;;
24044;SDS011;26257;49.442;8.422;2023-05-07T22:38:32;26.60;;;19.67;;
24044;SDS011;26257;49.442;8.422;2023-05-07T22:40:57;27.80;;;17.92;;
24044;SDS011;26257;49.442;8.422;2023-05-07T22:43:23;20.20;;;15.38;;
24044;SDS011;26257;49.442;8.422;2023-05-07T22:45:48;24.70;;;16.13;;
24044;SDS011;26257;49.442;8.422;2023-05-07T22:48:14;20.58;;;14.75;;
24044;SDS011;26257;49.442;8.422;2023-05-07T22:50:39;17.60;;;14.55;;
24044;SDS011;26257;49.442;8.422;2023-05-07T22:53:05;19.80;;;13.48;;
24044;SDS011;26257;49.442;8.422;2023-05-07T22:55:31;20.60;;;14.00;;
24044;SDS011;26257;49.442;8.422;2023-05-07T22:57:56;16.00;;;12.80;;
24044;SDS011;26257;49.442;8.422;2023-05-07T23:00:22;19.40;;;13.75;;
24044;SDS011;26257;49.442;8.422;2023-05-07T23:02:48;22.17;;;15.13;;
24044;SDS011;26257;49.442;8.422;2023-05-07T23:05:13;21.83;;;14.60;;
24044;SDS011;26257;49.442;8.422;2023-05-07T23:07:39;28.58;;;14.60;;
24044;SDS011;26257;49.442;8.422;2023-05-07T23:10:04;30.80;;;16.55;;
24044;SDS011;26257;49.442;8.422;2023-05-07T23:12:30;26.00;;;16.63;;
24044;SDS011;26257;49.442;8.422;2023-05-07T23:14:56;26.27;;;15.73;;
24044;SDS011;26257;49.442;8.422;2023-05-07T23:17:21;32.45;;;16.17;;
24044;SDS011;26257;49.442;8.422;2023-05-07T23:19:47;32.45;;;16.83;;
24044;SDS011;26257;49.442;8.422;2023-05-07T23:22:13;30.10;;;15.70;;
24044;SDS011;26257;49.442;8.422;2023-05-07T23:24:40;26.85;;;15.55;;
24044;SDS011;26257;49.442;8.422;2023-05-07T23:27:05;40.15;;;17.33;;
24044;SDS011;26257;49.442;8.422;2023-05-07T23:29:31;31.58;;;16.80;;
24044;SDS011;26257;49.442;8.422;2023-05-07T23:31:59;34.55;;;17.75;;
24044;SDS011;26257;49.442;8.422;2023-05-07T23:34:26;40.25;;;20.33;;
24044;SDS011;26257;49.442;8.422;2023-05-07T23:36:51;44.33;;;26.92;;
24044;SDS011;26257;49.442;8.422;2023-05-07T23:39:17;43.58;;;28.38;;
24044;SDS011;26257;49.442;8.422;2023-05-07T23:41:45;40.70;;;26.13;;
24044;SDS011;26257;49.442;8.422;2023-05-07T23:44:12;43.00;;;27.08;;
24044;SDS011;26257;49.442;8.422;2023-05-07T23:46:43;52.55;;;27.60;;
24044;SDS011;26257;49.442;8.422;2023-05-07T23:49:10;42.38;;;26.27;;
24044;SDS011;26257;49.442;8.422;2023-05-07T23:51:37;43.75;;;26.42;;
24044;SDS011;26257;49.442;8.422;2023-05-07T23:54:04;36.00;;;23.90;;
24044;SDS011;26257;49.442;8.422;2023-05-07T23:56:31;38.60;;;22.90;;
24044;SDS011;26257;49.442;8.422;2023-05-07T23:58:57;27.25;;;19.58;;
